sensor_id;sensor_type;location;lat;lon;timestamp;P1;durP1;ratioP1;P2;durP2;ratioP2
5979;SDS011;3016;50.308;8.258;2023-10-09T00:01:08;21.43;;;6.00;;
5979;SDS011;3016;50.308;8.258;2023-10-09T00:04:17;21.60;;;6.93;;
5979;SDS011;3016;50.308;8.258;2023-10-09T00:07:20;21.37;;;7.03;;
5979;SDS011;3016;50.308;8.258;2023-10-09T00:10:24;19.23;;;7.27;;
5979;SDS011;3016;50.308;8.258;2023-10-09T00:13:45;20.10;;;6.30;;
5979;SDS011;3016;50.308;8.258;2023-10-09T00:16:57;21.93;;;8.90;;
5979;SDS011;3016;50.308;8.258;2023-10-09T00:20:17;19.93;;;7.20;;
5979;SDS011;3016;50.308;8.258;2023-10-09T00:23:19;17.97;;;6.30;;
5979;SDS011;3016;50.308;8.258;2023-10-09T00:26:23;19.20;;;5.87;;
5979;SDS011;3016;50.308;8.258;2023-10-09T00:29:23;21.00;;;5.57;;
5979;SDS011;3016;50.308;8.258;2023-10-09T00:32:27;19.97;;;6.20;;
5979;SDS011;3016;50.308;8.258;2023-10-09T00:35:37;18.57;;;6.63;;
5979;SDS011;3016;50.308;8.258;2023-10-09T00:38:54;19.37;;;7.40;;
5979;SDS011;3016;50.308;8.258;2023-10-09T00:41:55;16.70;;;4.83;;
5979;SDS011;3016;50.308;8.258;2023-10-09T00:44:59;22.30;;;5.27;;
5979;SDS011;3016;50.308;8.258;2023-10-09T00:48:04;20.10;;;5.50;;
5979;SDS011;3016;50.308;8.258;2023-10-09T00:51:07;19.37;;;5.93;;
5979;SDS011;3016;50.308;8.258;2023-10-09T00:54:17;21.33;;;6.87;;
5979;SDS011;3016;50.308;8.258;2023-10-09T00:57:19;18.97;;;6.20;;
5979;SDS011;3016;50.308;8.258;2023-10-09T01:00:24;27.93;;;7.50;;
5979;SDS011;3016;50.308;8.258;2023-10-09T01:03:46;18.53;;;5.90;;
5979;SDS011;3016;50.308;8.258;2023-10-09T01:06:51;16.70;;;5.17;;
5979;SDS011;3016;50.308;8.258;2023-10-09T01:10:10;19.57;;;6.10;;
5979;SDS011;3016;50.308;8.258;2023-10-09T01:13:11;19.43;;;6.70;;
5979;SDS011;3016;50.308;8.258;2023-10-09T01:16:12;20.20;;;7.30;;
5979;SDS011;3016;50.308;8.258;2023-10-09T01:19:16;25.50;;;7.97;;
5979;SDS011;3016;50.308;8.258;2023-10-09T01:22:23;19.67;;;6.50;;
5979;SDS011;3016;50.308;8.258;2023-10-09T01:25:24;18.50;;;5.27;;
5979;SDS011;3016;50.308;8.258;2023-10-09T01:28:25;19.23;;;5.60;;
5979;SDS011;3016;50.308;8.258;2023-10-09T01:31:28;21.67;;;7.10;;
5979;SDS011;3016;50.308;8.258;2023-10-09T01:34:34;21.17;;;7.40;;
5979;SDS011;3016;50.308;8.258;2023-10-09T01:37:38;17.20;;;6.50;;
5979;SDS011;3016;50.308;8.258;2023-10-09T01:40:39;16.57;;;6.13;;
5979;SDS011;3016;50.308;8.258;2023-10-09T01:43:40;20.65;;;7.25;;
5979;SDS011;3016;50.308;8.258;2023-10-09T01:46:44;21.23;;;7.47;;
5979;SDS011;3016;50.308;8.258;2023-10-09T01:49:48;19.43;;;6.17;;
5979;SDS011;3016;50.308;8.258;2023-10-09T01:52:49;22.43;;;6.10;;
5979;SDS011;3016;50.308;8.258;2023-10-09T01:55:51;20.63;;;7.10;;
5979;SDS011;3016;50.308;8.258;2023-10-09T01:58:55;21.90;;;6.80;;
5979;SDS011;3016;50.308;8.258;2023-10-09T02:01:57;19.95;;;7.95;;
5979;SDS011;3016;50.308;8.258;2023-10-09T02:05:14;17.70;;;5.87;;
5979;SDS011;3016;50.308;8.258;2023-10-09T02:08:19;20.20;;;7.20;;
5979;SDS011;3016;50.308;8.258;2023-10-09T02:11:35;17.93;;;5.60;;
5979;SDS011;3016;50.308;8.258;2023-10-09T02:14:36;16.90;;;5.53;;
5979;SDS011;3016;50.308;8.258;2023-10-09T02:17:41;25.60;;;6.73;;
5979;SDS011;3016;50.308;8.258;2023-10-09T02:24:12;17.63;;;6.27;;
5979;SDS011;3016;50.308;8.258;2023-10-09T02:27:26;23.80;;;7.20;;
5979;SDS011;3016;50.308;8.258;2023-10-09T02:30:53;22.70;;;9.43;;
5979;SDS011;3016;50.308;8.258;2023-10-09T02:33:58;25.73;;;9.60;;
5979;SDS011;3016;50.308;8.258;2023-10-09T02:37:00;23.23;;;8.50;;
5979;SDS011;3016;50.308;8.258;2023-10-09T02:40:06;25.33;;;8.07;;
5979;SDS011;3016;50.308;8.258;2023-10-09T02:43:08;18.37;;;6.37;;
5979;SDS011;3016;50.308;8.258;2023-10-09T02:46:18;21.37;;;7.03;;
5979;SDS011;3016;50.308;8.258;2023-10-09T02:49:20;18.37;;;6.70;;
5979;SDS011;3016;50.308;8.258;2023-10-09T02:52:21;24.80;;;7.80;;
5979;SDS011;3016;50.308;8.258;2023-10-09T02:55:25;20.30;;;6.33;;
5979;SDS011;3016;50.308;8.258;2023-10-09T02:58:28;20.85;;;8.20;;
5979;SDS011;3016;50.308;8.258;2023-10-09T03:01:35;21.50;;;7.60;;
5979;SDS011;3016;50.308;8.258;2023-10-09T03:04:40;17.77;;;6.63;;
5979;SDS011;3016;50.308;8.258;2023-10-09T03:07:41;20.50;;;6.37;;
5979;SDS011;3016;50.308;8.258;2023-10-09T03:10:42;17.47;;;6.00;;
5979;SDS011;3016;50.308;8.258;2023-10-09T03:13:43;23.83;;;7.60;;
5979;SDS011;3016;50.308;8.258;2023-10-09T03:16:44;22.10;;;6.73;;
5979;SDS011;3016;50.308;8.258;2023-10-09T03:19:45;18.63;;;6.60;;
5979;SDS011;3016;50.308;8.258;2023-10-09T03:22:47;19.83;;;7.17;;
5979;SDS011;3016;50.308;8.258;2023-10-09T03:25:49;20.17;;;6.37;;
5979;SDS011;3016;50.308;8.258;2023-10-09T03:28:51;25.70;;;6.70;;
5979;SDS011;3016;50.308;8.258;2023-10-09T03:31:54;19.30;;;6.83;;
5979;SDS011;3016;50.308;8.258;2023-10-09T03:34:56;17.43;;;7.13;;
5979;SDS011;3016;50.308;8.258;2023-10-09T03:37:59;18.97;;;6.30;;
5979;SDS011;3016;50.308;8.258;2023-10-09T03:41:02;19.70;;;8.13;;
5979;SDS011;3016;50.308;8.258;2023-10-09T03:44:06;19.97;;;6.40;;
5979;SDS011;3016;50.308;8.258;2023-10-09T03:47:07;21.93;;;6.67;;
5979;SDS011;3016;50.308;8.258;2023-10-09T03:50:11;23.40;;;10.70;;
5979;SDS011;3016;50.308;8.258;2023-10-09T03:53:26;24.23;;;10.00;;
5979;SDS011;3016;50.308;8.258;2023-10-09T03:56:30;26.47;;;11.80;;
5979;SDS011;3016;50.308;8.258;2023-10-09T03:59:32;24.20;;;9.37;;
5979;SDS011;3016;50.308;8.258;2023-10-09T04:02:33;23.83;;;9.00;;
5979;SDS011;3016;50.308;8.258;2023-10-09T04:05:34;28.83;;;10.50;;
5979;SDS011;3016;50.308;8.258;2023-10-09T04:08:36;26.03;;;10.17;;
5979;SDS011;3016;50.308;8.258;2023-10-09T04:11:39;28.27;;;7.60;;
5979;SDS011;3016;50.308;8.258;2023-10-09T04:14:43;22.60;;;8.40;;
5979;SDS011;3016;50.308;8.258;2023-10-09T04:17:50;18.37;;;6.47;;
5979;SDS011;3016;50.308;8.258;2023-10-09T04:20:51;26.10;;;6.97;;
5979;SDS011;3016;50.308;8.258;2023-10-09T04:24:10;19.42;;;8.00;;
5979;SDS011;3016;50.308;8.258;2023-10-09T04:27:14;25.10;;;7.53;;
5979;SDS011;3016;50.308;8.258;2023-10-09T04:30:17;20.63;;;6.33;;
5979;SDS011;3016;50.308;8.258;2023-10-09T04:33:17;23.90;;;6.90;;
5979;SDS011;3016;50.308;8.258;2023-10-09T04:36:33;19.03;;;6.43;;
5979;SDS011;3016;50.308;8.258;2023-10-09T04:39:46;19.37;;;6.97;;
5979;SDS011;3016;50.308;8.258;2023-10-09T04:42:47;22.73;;;6.83;;
5979;SDS011;3016;50.308;8.258;2023-10-09T04:45:59;19.07;;;6.37;;
5979;SDS011;3016;50.308;8.258;2023-10-09T04:49:23;16.93;;;4.93;;
5979;SDS011;3016;50.308;8.258;2023-10-09T04:52:27;19.23;;;6.80;;
5979;SDS011;3016;50.308;8.258;2023-10-09T04:55:30;22.13;;;7.00;;
5979;SDS011;3016;50.308;8.258;2023-10-09T04:58:38;16.73;;;6.00;;
5979;SDS011;3016;50.308;8.258;2023-10-09T05:01:39;20.37;;;7.30;;
5979;SDS011;3016;50.308;8.258;2023-10-09T05:04:46;21.80;;;6.20;;
5979;SDS011;3016;50.308;8.258;2023-10-09T05:07:51;18.67;;;6.63;;
5979;SDS011;3016;50.308;8.258;2023-10-09T05:14:00;22.02;;;7.40;;
5979;SDS011;3016;50.308;8.258;2023-10-09T05:17:11;17.70;;;6.27;;
5979;SDS011;3016;50.308;8.258;2023-10-09T05:20:15;17.37;;;5.70;;
5979;SDS011;3016;50.308;8.258;2023-10-09T05:23:22;18.57;;;5.67;;
5979;SDS011;3016;50.308;8.258;2023-10-09T05:26:26;19.35;;;6.32;;
5979;SDS011;3016;50.308;8.258;2023-10-09T05:29:37;19.90;;;6.43;;
5979;SDS011;3016;50.308;8.258;2023-10-09T05:32:49;16.30;;;5.50;;
5979;SDS011;3016;50.308;8.258;2023-10-09T05:35:55;22.13;;;5.70;;
5979;SDS011;3016;50.308;8.258;2023-10-09T05:39:05;19.73;;;9.27;;
5979;SDS011;3016;50.308;8.258;2023-10-09T05:42:33;27.50;;;12.30;;
5979;SDS011;3016;50.308;8.258;2023-10-09T05:45:41;23.20;;;11.90;;
5979;SDS011;3016;50.308;8.258;2023-10-09T05:49:07;22.57;;;9.93;;
5979;SDS011;3016;50.308;8.258;2023-10-09T05:52:19;18.23;;;7.70;;
5979;SDS011;3016;50.308;8.258;2023-10-09T05:55:40;18.57;;;6.97;;
5979;SDS011;3016;50.308;8.258;2023-10-09T05:58:59;17.13;;;6.10;;
5979;SDS011;3016;50.308;8.258;2023-10-09T06:02:18;20.77;;;6.20;;
5979;SDS011;3016;50.308;8.258;2023-10-09T06:05:37;16.83;;;6.00;;
5979;SDS011;3016;50.308;8.258;2023-10-09T06:08:41;16.13;;;5.33;;
5979;SDS011;3016;50.308;8.258;2023-10-09T06:11:42;22.03;;;6.17;;
5979;SDS011;3016;50.308;8.258;2023-10-09T06:14:49;21.47;;;5.97;;
5979;SDS011;3016;50.308;8.258;2023-10-09T06:17:57;17.63;;;5.97;;
5979;SDS011;3016;50.308;8.258;2023-10-09T06:21:18;21.83;;;6.30;;
5979;SDS011;3016;50.308;8.258;2023-10-09T06:24:40;18.97;;;7.00;;
5979;SDS011;3016;50.308;8.258;2023-10-09T06:27:42;20.00;;;5.93;;
5979;SDS011;3016;50.308;8.258;2023-10-09T06:30:46;20.67;;;6.93;;
5979;SDS011;3016;50.308;8.258;2023-10-09T06:33:47;19.37;;;6.57;;
5979;SDS011;3016;50.308;8.258;2023-10-09T06:37:14;18.30;;;8.10;;
5979;SDS011;3016;50.308;8.258;2023-10-09T06:40:38;23.43;;;8.67;;
5979;SDS011;3016;50.308;8.258;2023-10-09T06:43:51;19.47;;;8.73;;
5979;SDS011;3016;50.308;8.258;2023-10-09T06:46:53;18.60;;;7.03;;
5979;SDS011;3016;50.308;8.258;2023-10-09T06:49:57;21.70;;;7.87;;
5979;SDS011;3016;50.308;8.258;2023-10-09T06:53:17;21.40;;;7.20;;
5979;SDS011;3016;50.308;8.258;2023-10-09T06:56:20;23.40;;;7.40;;
5979;SDS011;3016;50.308;8.258;2023-10-09T06:59:29;19.77;;;6.80;;
5979;SDS011;3016;50.308;8.258;2023-10-09T07:02:43;20.23;;;6.80;;
5979;SDS011;3016;50.308;8.258;2023-10-09T07:05:47;16.93;;;5.70;;
5979;SDS011;3016;50.308;8.258;2023-10-09T07:09:05;21.87;;;6.60;;
5979;SDS011;3016;50.308;8.258;2023-10-09T07:12:05;17.13;;;6.23;;
5979;SDS011;3016;50.308;8.258;2023-10-09T07:15:09;18.07;;;5.80;;
5979;SDS011;3016;50.308;8.258;2023-10-09T07:18:29;22.60;;;7.03;;
5979;SDS011;3016;50.308;8.258;2023-10-09T07:21:49;19.03;;;6.43;;
5979;SDS011;3016;50.308;8.258;2023-10-09T07:24:54;22.77;;;7.87;;
5979;SDS011;3016;50.308;8.258;2023-10-09T07:28:24;20.40;;;5.87;;
5979;SDS011;3016;50.308;8.258;2023-10-09T07:31:42;20.87;;;6.30;;
5979;SDS011;3016;50.308;8.258;2023-10-09T07:34:46;17.33;;;6.03;;
5979;SDS011;3016;50.308;8.258;2023-10-09T07:37:53;19.77;;;6.20;;
5979;SDS011;3016;50.308;8.258;2023-10-09T07:40:55;23.43;;;7.23;;
5979;SDS011;3016;50.308;8.258;2023-10-09T07:43:59;24.37;;;7.50;;
5979;SDS011;3016;50.308;8.258;2023-10-09T07:47:19;19.80;;;6.10;;
5979;SDS011;3016;50.308;8.258;2023-10-09T07:50:36;20.80;;;6.63;;
5979;SDS011;3016;50.308;8.258;2023-10-09T07:53:40;22.63;;;7.60;;
5979;SDS011;3016;50.308;8.258;2023-10-09T07:56:44;17.37;;;6.70;;
5979;SDS011;3016;50.308;8.258;2023-10-09T07:59:45;20.97;;;7.33;;
5979;SDS011;3016;50.308;8.258;2023-10-09T08:03:00;24.47;;;7.57;;
5979;SDS011;3016;50.308;8.258;2023-10-09T08:06:02;26.30;;;8.90;;
5979;SDS011;3016;50.308;8.258;2023-10-09T08:09:22;32.63;;;11.00;;
5979;SDS011;3016;50.308;8.258;2023-10-09T08:12:42;32.47;;;10.63;;
5979;SDS011;3016;50.308;8.258;2023-10-09T08:15:55;31.90;;;10.10;;
5979;SDS011;3016;50.308;8.258;2023-10-09T08:19:01;26.43;;;9.73;;
5979;SDS011;3016;50.308;8.258;2023-10-09T08:22:24;23.10;;;10.30;;
5979;SDS011;3016;50.308;8.258;2023-10-09T08:25:27;33.10;;;11.50;;
5979;SDS011;3016;50.308;8.258;2023-10-09T08:28:28;37.10;;;11.67;;
5979;SDS011;3016;50.308;8.258;2023-10-09T08:31:39;34.77;;;11.33;;
5979;SDS011;3016;50.308;8.258;2023-10-09T08:34:46;33.10;;;10.23;;
5979;SDS011;3016;50.308;8.258;2023-10-09T08:37:53;30.00;;;10.17;;
5979;SDS011;3016;50.308;8.258;2023-10-09T08:41:05;32.80;;;10.80;;
5979;SDS011;3016;50.308;8.258;2023-10-09T08:44:17;46.10;;;14.87;;
5979;SDS011;3016;50.308;8.258;2023-10-09T08:47:23;37.00;;;11.80;;
5979;SDS011;3016;50.308;8.258;2023-10-09T08:50:24;32.20;;;10.13;;
5979;SDS011;3016;50.308;8.258;2023-10-09T08:53:28;22.73;;;7.87;;
5979;SDS011;3016;50.308;8.258;2023-10-09T08:56:31;30.83;;;10.87;;
5979;SDS011;3016;50.308;8.258;2023-10-09T08:59:32;27.90;;;9.50;;
5979;SDS011;3016;50.308;8.258;2023-10-09T09:02:35;24.80;;;8.83;;
5979;SDS011;3016;50.308;8.258;2023-10-09T09:05:36;22.73;;;7.00;;
5979;SDS011;3016;50.308;8.258;2023-10-09T09:08:37;23.37;;;6.83;;
5979;SDS011;3016;50.308;8.258;2023-10-09T09:11:40;18.10;;;5.50;;
5979;SDS011;3016;50.308;8.258;2023-10-09T09:14:48;22.57;;;6.57;;
5979;SDS011;3016;50.308;8.258;2023-10-09T09:17:51;19.93;;;6.20;;
5979;SDS011;3016;50.308;8.258;2023-10-09T09:20:51;23.63;;;6.37;;
5979;SDS011;3016;50.308;8.258;2023-10-09T09:24:00;20.93;;;6.53;;
5979;SDS011;3016;50.308;8.258;2023-10-09T09:27:02;19.13;;;6.50;;
5979;SDS011;3016;50.308;8.258;2023-10-09T09:30:22;24.03;;;7.70;;
5979;SDS011;3016;50.308;8.258;2023-10-09T09:33:33;24.07;;;8.17;;
5979;SDS011;3016;50.308;8.258;2023-10-09T09:36:49;25.97;;;8.50;;
5979;SDS011;3016;50.308;8.258;2023-10-09T09:40:00;20.83;;;8.20;;
5979;SDS011;3016;50.308;8.258;2023-10-09T09:43:15;22.20;;;8.87;;
5979;SDS011;3016;50.308;8.258;2023-10-09T09:46:22;21.30;;;8.30;;
5979;SDS011;3016;50.308;8.258;2023-10-09T09:49:33;24.83;;;8.10;;
5979;SDS011;3016;50.308;8.258;2023-10-09T09:52:38;22.90;;;7.60;;
5979;SDS011;3016;50.308;8.258;2023-10-09T09:55:39;23.97;;;8.00;;
5979;SDS011;3016;50.308;8.258;2023-10-09T09:58:52;24.17;;;8.03;;
5979;SDS011;3016;50.308;8.258;2023-10-09T10:01:57;24.27;;;7.63;;
5979;SDS011;3016;50.308;8.258;2023-10-09T10:05:06;20.73;;;8.13;;
5979;SDS011;3016;50.308;8.258;2023-10-09T10:08:14;20.17;;;8.80;;
5979;SDS011;3016;50.308;8.258;2023-10-09T10:14:58;20.63;;;6.63;;
5979;SDS011;3016;50.308;8.258;2023-10-09T10:18:06;26.73;;;8.37;;
5979;SDS011;3016;50.308;8.258;2023-10-09T10:21:12;22.97;;;8.87;;
5979;SDS011;3016;50.308;8.258;2023-10-09T10:28:10;26.00;;;6.83;;
5979;SDS011;3016;50.308;8.258;2023-10-09T10:32:01;20.23;;;7.17;;
5979;SDS011;3016;50.308;8.258;2023-10-09T10:35:06;23.97;;;8.70;;
5979;SDS011;3016;50.308;8.258;2023-10-09T10:41:58;22.63;;;7.90;;
5979;SDS011;3016;50.308;8.258;2023-10-09T10:45:05;22.47;;;7.57;;
5979;SDS011;3016;50.308;8.258;2023-10-09T10:48:26;21.30;;;7.10;;
5979;SDS011;3016;50.308;8.258;2023-10-09T10:51:37;24.83;;;7.90;;
5979;SDS011;3016;50.308;8.258;2023-10-09T10:54:38;20.90;;;7.57;;
5979;SDS011;3016;50.308;8.258;2023-10-09T10:57:39;22.43;;;6.47;;
5979;SDS011;3016;50.308;8.258;2023-10-09T11:01:00;18.40;;;6.00;;
5979;SDS011;3016;50.308;8.258;2023-10-09T11:04:14;19.83;;;5.23;;
5979;SDS011;3016;50.308;8.258;2023-10-09T11:07:24;16.87;;;5.07;;
5979;SDS011;3016;50.308;8.258;2023-10-09T11:10:26;18.77;;;4.90;;
5979;SDS011;3016;50.308;8.258;2023-10-09T11:13:28;16.43;;;4.67;;
5979;SDS011;3016;50.308;8.258;2023-10-09T11:16:30;20.93;;;4.60;;
5979;SDS011;3016;50.308;8.258;2023-10-09T11:19:43;16.53;;;4.00;;
5979;SDS011;3016;50.308;8.258;2023-10-09T11:22:44;20.20;;;3.70;;
5979;SDS011;3016;50.308;8.258;2023-10-09T11:26:05;16.73;;;4.03;;
5979;SDS011;3016;50.308;8.258;2023-10-09T11:29:25;18.23;;;4.33;;
5979;SDS011;3016;50.308;8.258;2023-10-09T11:32:26;16.83;;;4.23;;
5979;SDS011;3016;50.308;8.258;2023-10-09T11:35:32;21.23;;;4.57;;
5979;SDS011;3016;50.308;8.258;2023-10-09T11:38:35;18.63;;;4.20;;
5979;SDS011;3016;50.308;8.258;2023-10-09T11:41:39;16.43;;;4.17;;
5979;SDS011;3016;50.308;8.258;2023-10-09T11:44:41;17.50;;;3.80;;
5979;SDS011;3016;50.308;8.258;2023-10-09T11:47:46;17.10;;;4.37;;
5979;SDS011;3016;50.308;8.258;2023-10-09T11:51:00;16.97;;;4.50;;
5979;SDS011;3016;50.308;8.258;2023-10-09T11:54:03;19.97;;;4.70;;
5979;SDS011;3016;50.308;8.258;2023-10-09T11:57:08;17.93;;;4.23;;
5979;SDS011;3016;50.308;8.258;2023-10-09T12:00:09;19.07;;;5.50;;
5979;SDS011;3016;50.308;8.258;2023-10-09T12:03:29;17.43;;;4.53;;
5979;SDS011;3016;50.308;8.258;2023-10-09T12:06:31;16.27;;;4.17;;
5979;SDS011;3016;50.308;8.258;2023-10-09T12:09:32;16.17;;;4.37;;
5979;SDS011;3016;50.308;8.258;2023-10-09T12:12:37;17.13;;;4.87;;
5979;SDS011;3016;50.308;8.258;2023-10-09T12:15:37;15.80;;;4.40;;
5979;SDS011;3016;50.308;8.258;2023-10-09T12:18:38;17.93;;;4.40;;
5979;SDS011;3016;50.308;8.258;2023-10-09T12:21:39;16.67;;;3.93;;
5979;SDS011;3016;50.308;8.258;2023-10-09T12:24:42;18.10;;;4.13;;
5979;SDS011;3016;50.308;8.258;2023-10-09T12:27:43;17.97;;;5.30;;
5979;SDS011;3016;50.308;8.258;2023-10-09T12:30:44;17.23;;;4.67;;
5979;SDS011;3016;50.308;8.258;2023-10-09T12:33:50;24.43;;;7.80;;
5979;SDS011;3016;50.308;8.258;2023-10-09T12:36:51;19.67;;;7.13;;
5979;SDS011;3016;50.308;8.258;2023-10-09T12:39:53;18.80;;;7.43;;
5979;SDS011;3016;50.308;8.258;2023-10-09T12:42:57;19.57;;;5.30;;
5979;SDS011;3016;50.308;8.258;2023-10-09T12:46:03;20.07;;;6.80;;
5979;SDS011;3016;50.308;8.258;2023-10-09T12:49:06;17.37;;;4.70;;
5979;SDS011;3016;50.308;8.258;2023-10-09T12:52:07;17.43;;;4.57;;
5979;SDS011;3016;50.308;8.258;2023-10-09T12:55:17;16.10;;;4.50;;
5979;SDS011;3016;50.308;8.258;2023-10-09T12:58:19;16.23;;;4.63;;
5979;SDS011;3016;50.308;8.258;2023-10-09T13:01:21;18.77;;;5.20;;
5979;SDS011;3016;50.308;8.258;2023-10-09T13:04:22;16.20;;;4.20;;
5979;SDS011;3016;50.308;8.258;2023-10-09T13:07:23;17.70;;;5.00;;
5979;SDS011;3016;50.308;8.258;2023-10-09T13:10:23;16.10;;;3.93;;
5979;SDS011;3016;50.308;8.258;2023-10-09T13:13:25;19.40;;;4.93;;
5979;SDS011;3016;50.308;8.258;2023-10-09T13:16:43;14.93;;;3.80;;
5979;SDS011;3016;50.308;8.258;2023-10-09T13:19:43;17.43;;;4.20;;
5979;SDS011;3016;50.308;8.258;2023-10-09T13:22:44;15.77;;;4.10;;
5979;SDS011;3016;50.308;8.258;2023-10-09T13:25:47;18.77;;;4.97;;
5979;SDS011;3016;50.308;8.258;2023-10-09T13:28:49;15.70;;;4.50;;
5979;SDS011;3016;50.308;8.258;2023-10-09T13:31:51;17.23;;;4.60;;
5979;SDS011;3016;50.308;8.258;2023-10-09T13:34:57;19.50;;;4.10;;
5979;SDS011;3016;50.308;8.258;2023-10-09T13:38:02;18.23;;;5.00;;
5979;SDS011;3016;50.308;8.258;2023-10-09T13:41:08;16.70;;;5.40;;
5979;SDS011;3016;50.308;8.258;2023-10-09T13:44:12;16.17;;;4.10;;
5979;SDS011;3016;50.308;8.258;2023-10-09T13:47:13;18.00;;;4.53;;
5979;SDS011;3016;50.308;8.258;2023-10-09T13:50:19;18.27;;;4.33;;
5979;SDS011;3016;50.308;8.258;2023-10-09T13:53:21;16.27;;;4.80;;
5979;SDS011;3016;50.308;8.258;2023-10-09T13:56:26;17.67;;;4.50;;
5979;SDS011;3016;50.308;8.258;2023-10-09T13:59:27;17.97;;;4.93;;
5979;SDS011;3016;50.308;8.258;2023-10-09T14:02:28;14.77;;;3.53;;
5979;SDS011;3016;50.308;8.258;2023-10-09T14:05:29;21.50;;;4.33;;
5979;SDS011;3016;50.308;8.258;2023-10-09T14:08:30;18.87;;;5.30;;
5979;SDS011;3016;50.308;8.258;2023-10-09T14:11:31;18.50;;;6.00;;
5979;SDS011;3016;50.308;8.258;2023-10-09T14:17:49;19.13;;;5.57;;
5979;SDS011;3016;50.308;8.258;2023-10-09T14:20:55;18.07;;;5.40;;
5979;SDS011;3016;50.308;8.258;2023-10-09T14:23:56;16.50;;;4.70;;
5979;SDS011;3016;50.308;8.258;2023-10-09T14:26:57;18.40;;;4.70;;
5979;SDS011;3016;50.308;8.258;2023-10-09T14:29:59;18.27;;;5.00;;
5979;SDS011;3016;50.308;8.258;2023-10-09T14:32:59;18.80;;;5.17;;
5979;SDS011;3016;50.308;8.258;2023-10-09T14:36:02;16.97;;;4.30;;
5979;SDS011;3016;50.308;8.258;2023-10-09T14:39:05;17.40;;;5.30;;
5979;SDS011;3016;50.308;8.258;2023-10-09T14:42:07;20.23;;;4.87;;
5979;SDS011;3016;50.308;8.258;2023-10-09T14:45:13;18.20;;;5.70;;
5979;SDS011;3016;50.308;8.258;2023-10-09T14:48:17;19.77;;;5.57;;
5979;SDS011;3016;50.308;8.258;2023-10-09T14:51:18;17.70;;;5.10;;
5979;SDS011;3016;50.308;8.258;2023-10-09T14:54:26;20.43;;;5.23;;
5979;SDS011;3016;50.308;8.258;2023-10-09T14:57:27;17.53;;;5.17;;
5979;SDS011;3016;50.308;8.258;2023-10-09T15:00:28;16.67;;;4.87;;
5979;SDS011;3016;50.308;8.258;2023-10-09T15:03:34;17.07;;;4.80;;
5979;SDS011;3016;50.308;8.258;2023-10-09T15:06:37;17.03;;;4.97;;
5979;SDS011;3016;50.308;8.258;2023-10-09T15:09:38;16.30;;;4.23;;
5979;SDS011;3016;50.308;8.258;2023-10-09T15:12:41;18.93;;;5.80;;
5979;SDS011;3016;50.308;8.258;2023-10-09T15:15:45;18.70;;;5.87;;
5979;SDS011;3016;50.308;8.258;2023-10-09T15:18:51;19.00;;;5.27;;
5979;SDS011;3016;50.308;8.258;2023-10-09T15:21:52;17.60;;;4.63;;
5979;SDS011;3016;50.308;8.258;2023-10-09T15:24:53;19.03;;;5.17;;
5979;SDS011;3016;50.308;8.258;2023-10-09T15:27:54;20.00;;;5.00;;
5979;SDS011;3016;50.308;8.258;2023-10-09T15:30:55;17.63;;;5.30;;
5979;SDS011;3016;50.308;8.258;2023-10-09T15:33:55;16.93;;;4.77;;
5979;SDS011;3016;50.308;8.258;2023-10-09T15:36:57;26.67;;;6.10;;
5979;SDS011;3016;50.308;8.258;2023-10-09T15:39:58;22.53;;;7.13;;
5979;SDS011;3016;50.308;8.258;2023-10-09T15:43:04;22.00;;;7.30;;
5979;SDS011;3016;50.308;8.258;2023-10-09T15:46:09;20.50;;;6.50;;
5979;SDS011;3016;50.308;8.258;2023-10-09T15:49:16;20.20;;;6.40;;
5979;SDS011;3016;50.308;8.258;2023-10-09T15:52:17;21.50;;;6.27;;
5979;SDS011;3016;50.308;8.258;2023-10-09T15:55:18;19.63;;;5.83;;
5979;SDS011;3016;50.308;8.258;2023-10-09T15:58:24;17.43;;;4.70;;
5979;SDS011;3016;50.308;8.258;2023-10-09T16:01:25;16.80;;;4.20;;
5979;SDS011;3016;50.308;8.258;2023-10-09T16:04:25;18.30;;;5.30;;
5979;SDS011;3016;50.308;8.258;2023-10-09T16:07:26;19.27;;;4.67;;
5979;SDS011;3016;50.308;8.258;2023-10-09T16:10:28;17.00;;;5.20;;
5979;SDS011;3016;50.308;8.258;2023-10-09T16:13:31;17.07;;;4.40;;
5979;SDS011;3016;50.308;8.258;2023-10-09T16:16:32;16.47;;;4.60;;
5979;SDS011;3016;50.308;8.258;2023-10-09T16:19:34;18.50;;;4.60;;
5979;SDS011;3016;50.308;8.258;2023-10-09T16:22:36;15.93;;;4.57;;
5979;SDS011;3016;50.308;8.258;2023-10-09T16:25:38;20.03;;;5.23;;
5979;SDS011;3016;50.308;8.258;2023-10-09T16:28:40;19.83;;;5.87;;
5979;SDS011;3016;50.308;8.258;2023-10-09T16:31:41;16.43;;;4.40;;
5979;SDS011;3016;50.308;8.258;2023-10-09T16:34:42;15.07;;;3.70;;
5979;SDS011;3016;50.308;8.258;2023-10-09T16:37:44;19.73;;;7.47;;
5979;SDS011;3016;50.308;8.258;2023-10-09T16:40:44;20.63;;;7.60;;
5979;SDS011;3016;50.308;8.258;2023-10-09T16:43:54;16.27;;;4.60;;
5979;SDS011;3016;50.308;8.258;2023-10-09T16:46:56;17.27;;;4.57;;
5979;SDS011;3016;50.308;8.258;2023-10-09T16:49:58;15.93;;;4.70;;
5979;SDS011;3016;50.308;8.258;2023-10-09T16:53:00;16.10;;;4.67;;
5979;SDS011;3016;50.308;8.258;2023-10-09T16:56:03;17.63;;;5.60;;
5979;SDS011;3016;50.308;8.258;2023-10-09T16:59:11;16.20;;;4.70;;
5979;SDS011;3016;50.308;8.258;2023-10-09T17:02:14;16.77;;;5.07;;
5979;SDS011;3016;50.308;8.258;2023-10-09T17:05:22;18.13;;;5.07;;
5979;SDS011;3016;50.308;8.258;2023-10-09T17:08:32;15.90;;;4.63;;
5979;SDS011;3016;50.308;8.258;2023-10-09T17:11:39;17.40;;;4.97;;
5979;SDS011;3016;50.308;8.258;2023-10-09T17:14:40;20.87;;;5.40;;
5979;SDS011;3016;50.308;8.258;2023-10-09T17:17:42;18.20;;;4.57;;
5979;SDS011;3016;50.308;8.258;2023-10-09T17:20:49;20.33;;;5.37;;
5979;SDS011;3016;50.308;8.258;2023-10-09T17:23:51;20.03;;;4.50;;
5979;SDS011;3016;50.308;8.258;2023-10-09T17:26:58;23.40;;;6.63;;
5979;SDS011;3016;50.308;8.258;2023-10-09T17:29:58;21.33;;;7.53;;
5979;SDS011;3016;50.308;8.258;2023-10-09T17:33:00;25.40;;;11.50;;
5979;SDS011;3016;50.308;8.258;2023-10-09T17:36:01;38.33;;;23.27;;
5979;SDS011;3016;50.308;8.258;2023-10-09T17:39:05;41.00;;;29.40;;
5979;SDS011;3016;50.308;8.258;2023-10-09T17:42:06;36.57;;;23.33;;
5979;SDS011;3016;50.308;8.258;2023-10-09T17:45:08;29.10;;;13.70;;
5979;SDS011;3016;50.308;8.258;2023-10-09T17:48:09;25.60;;;11.57;;
5979;SDS011;3016;50.308;8.258;2023-10-09T17:51:10;26.80;;;10.83;;
5979;SDS011;3016;50.308;8.258;2023-10-09T17:54:11;25.70;;;12.50;;
5979;SDS011;3016;50.308;8.258;2023-10-09T17:57:14;24.30;;;9.30;;
5979;SDS011;3016;50.308;8.258;2023-10-09T18:00:14;23.20;;;10.50;;
5979;SDS011;3016;50.308;8.258;2023-10-09T18:03:22;27.67;;;12.33;;
5979;SDS011;3016;50.308;8.258;2023-10-09T18:06:27;21.30;;;8.73;;
5979;SDS011;3016;50.308;8.258;2023-10-09T18:09:27;18.97;;;7.23;;
5979;SDS011;3016;50.308;8.258;2023-10-09T18:12:30;26.27;;;6.60;;
5979;SDS011;3016;50.308;8.258;2023-10-09T18:15:31;21.87;;;9.40;;
5979;SDS011;3016;50.308;8.258;2023-10-09T18:18:34;21.60;;;7.43;;
5979;SDS011;3016;50.308;8.258;2023-10-09T18:21:36;19.20;;;6.33;;
5979;SDS011;3016;50.308;8.258;2023-10-09T18:24:41;22.40;;;10.67;;
5979;SDS011;3016;50.308;8.258;2023-10-09T18:27:42;31.37;;;14.23;;
5979;SDS011;3016;50.308;8.258;2023-10-09T18:30:43;24.63;;;11.53;;
5979;SDS011;3016;50.308;8.258;2023-10-09T18:33:49;22.23;;;10.60;;
5979;SDS011;3016;50.308;8.258;2023-10-09T18:36:55;20.27;;;9.50;;
5979;SDS011;3016;50.308;8.258;2023-10-09T18:39:56;24.50;;;8.73;;
5979;SDS011;3016;50.308;8.258;2023-10-09T18:42:59;17.40;;;7.20;;
5979;SDS011;3016;50.308;8.258;2023-10-09T18:46:02;19.87;;;6.57;;
5979;SDS011;3016;50.308;8.258;2023-10-09T18:49:04;23.33;;;6.57;;
5979;SDS011;3016;50.308;8.258;2023-10-09T18:52:05;20.43;;;7.00;;
5979;SDS011;3016;50.308;8.258;2023-10-09T18:55:08;17.77;;;5.88;;
5979;SDS011;3016;50.308;8.258;2023-10-09T18:58:12;17.60;;;6.13;;
5979;SDS011;3016;50.308;8.258;2023-10-09T19:01:18;16.47;;;6.37;;
5979;SDS011;3016;50.308;8.258;2023-10-09T19:04:19;19.10;;;6.30;;
5979;SDS011;3016;50.308;8.258;2023-10-09T19:07:19;17.77;;;6.23;;
5979;SDS011;3016;50.308;8.258;2023-10-09T19:10:21;19.40;;;6.77;;
5979;SDS011;3016;50.308;8.258;2023-10-09T19:13:22;21.30;;;6.90;;
5979;SDS011;3016;50.308;8.258;2023-10-09T19:16:23;20.80;;;7.07;;